Archival Weather

Sydney Intl

Sydney, Australia (YSSY)

Report from: Wednesday, September 20, 2023 4:00 PM AEST
Current time: Wednesday, July 17, 2024 2:11 AM AEST

Current weather – Weather history – Daily summaries
Weather forecast

Temperature35.0°C (95.0°F)
Heat index32.4°C (90.2°F)
Dew point-1.0°C (30.2°F)
Winds 22 kts (11.3 m/s, 25.3 mph) West-Northwest (300°)
Clouds Sky clear
Altimeter29.68 in.Hg (1005 mB)
Relative humidity10 %
Density altitude2,638 ft. (804 m)
Remarks Ceiling and visibility OK
Flight conditions Visual Meteorological Conditions
Raw dataYSSY 200600Z 30022KT CAVOK 35/M01 Q1005
An error has occurred. This application may no longer respond until reloaded. Reload 🗙